createdAt,value
2023-04-27T00:00:39.281Z,71.62
2023-04-27T00:02:40.963Z,72.72
2023-04-27T00:04:42.669Z,73.59
2023-04-27T00:06:44.303Z,73.79
2023-04-27T00:08:45.915Z,73.21
2023-04-27T00:10:48.782Z,74.13
2023-04-27T00:12:50.235Z,73.67
2023-04-27T00:14:51.800Z,73.47
2023-04-27T00:16:53.337Z,73.77
2023-04-27T00:18:54.852Z,74.00
2023-04-27T00:20:56.408Z,74.49
2023-04-27T00:22:57.900Z,74.58
2023-04-27T00:24:59.363Z,75.03
2023-04-27T00:27:02.190Z,75.78
2023-04-27T00:29:03.659Z,75.78
2023-04-27T00:31:05.389Z,75.81
2023-04-27T00:33:06.978Z,74.95
2023-04-27T00:35:09.610Z,74.87
2023-04-27T00:37:11.080Z,75.45
2023-04-27T00:39:12.713Z,75.00
2023-04-27T00:41:14.504Z,76.58
2023-04-27T00:43:17.333Z,75.93
2023-04-27T00:45:18.885Z,76.48
2023-04-27T00:47:20.360Z,76.38
2023-04-27T00:49:22.293Z,75.38
2023-04-27T00:51:23.802Z,74.31
2023-04-27T00:53:25.464Z,74.11
2023-04-27T00:55:26.977Z,74.24
2023-04-27T00:57:28.466Z,74.34
2023-04-27T00:59:31.458Z,74.38
2023-04-27T01:01:33.293Z,73.65
2023-04-27T01:03:35.163Z,74.41
2023-04-27T01:05:37.386Z,74.65
2023-04-27T01:07:39.225Z,74.89
2023-04-27T01:09:40.757Z,74.73
2023-04-27T01:11:42.270Z,74.70
2023-04-27T01:13:43.925Z,73.33
2023-04-27T01:15:46.804Z,73.03
2023-04-27T01:17:48.362Z,72.96
2023-04-27T01:19:50.059Z,72.84
2023-04-27T01:21:51.588Z,73.92
2023-04-27T01:23:54.622Z,75.06
2023-04-27T01:25:56.092Z,76.73
2023-04-27T01:27:57.569Z,76.21
2023-04-27T01:29:59.033Z,76.80
2023-04-27T01:32:00.679Z,77.89
2023-04-27T01:34:02.166Z,78.55
2023-04-27T01:36:04.070Z,78.04
2023-04-27T01:38:05.645Z,78.51
2023-04-27T01:40:09.496Z,78.91
2023-04-27T01:42:11.083Z,77.92
2023-04-27T01:44:12.812Z,78.14
2023-04-27T01:46:14.643Z,77.73
2023-04-27T01:48:16.991Z,78.46
2023-04-27T01:50:18.700Z,79.25
2023-04-27T01:52:20.167Z,79.49
2023-04-27T01:54:21.981Z,78.58
2023-04-27T01:56:24.855Z,78.88
2023-04-27T01:58:26.697Z,78.97
2023-04-27T02:00:28.325Z,78.70
2023-04-27T02:02:29.940Z,79.08
2023-04-27T02:04:31.532Z,79.20
2023-04-27T02:06:33.177Z,78.38
2023-04-27T02:08:35.035Z,79.27
2023-04-27T02:10:36.910Z,79.84
2023-04-27T02:12:39.747Z,79.60
2023-04-27T02:14:41.266Z,79.79
2023-04-27T02:16:42.963Z,79.65
2023-04-27T02:18:44.477Z,79.87
2023-04-27T02:20:45.982Z,79.49
2023-04-27T02:22:47.443Z,79.84
2023-04-27T02:24:48.950Z,80.48
2023-04-27T02:26:50.436Z,81.13
2023-04-27T02:28:53.288Z,81.55
2023-04-27T02:30:55.243Z,81.49
2023-04-27T02:32:58.089Z,81.46
2023-04-27T02:34:59.581Z,81.49
2023-04-27T02:37:01.098Z,81.76
2023-04-27T02:39:02.668Z,81.08
2023-04-27T02:41:04.201Z,81.30
2023-04-27T02:43:05.707Z,80.19
2023-04-27T02:45:09.500Z,80.49
2023-04-27T02:47:11.145Z,81.50
2023-04-27T02:49:12.963Z,80.99
2023-04-27T02:51:14.841Z,81.71
2023-04-27T02:53:16.504Z,81.64
2023-04-27T02:55:18.099Z,81.14
2023-04-27T02:57:19.896Z,80.36
2023-04-27T02:59:21.591Z,79.95
2023-04-27T03:01:24.537Z,79.95
2023-04-27T03:03:26.234Z,80.20
2023-04-27T03:05:28.043Z,79.93
2023-04-27T03:07:29.557Z,79.69
2023-04-27T03:09:31.020Z,80.35
2023-04-27T03:11:32.845Z,81.21
2023-04-27T03:13:34.367Z,81.04
2023-04-27T03:15:35.868Z,80.67
2023-04-27T03:17:38.733Z,80.24
2023-04-27T03:19:40.234Z,80.59
2023-04-27T03:21:41.740Z,81.05
2023-04-27T03:23:43.226Z,79.95
2023-04-27T03:25:44.730Z,80.91
2023-04-27T03:27:46.293Z,80.95
2023-04-27T03:29:51.509Z,81.34
2023-04-27T03:31:53.077Z,81.68
2023-04-27T03:33:55.950Z,81.81
2023-04-27T03:35:57.841Z,81.56
2023-04-27T03:37:59.338Z,82.56
2023-04-27T03:40:00.833Z,82.15
2023-04-27T03:42:02.388Z,82.54
2023-04-27T03:44:04.272Z,82.16
2023-04-27T03:46:06.045Z,82.36
2023-04-27T03:48:07.819Z,81.69
2023-04-27T03:50:10.978Z,81.35
2023-04-27T03:52:12.696Z,80.99
2023-04-27T03:54:14.293Z,81.04
2023-04-27T03:56:16.104Z,81.01
2023-04-27T03:58:17.594Z,81.21
2023-04-27T04:00:19.202Z,81.20
2023-04-27T04:02:20.737Z,81.54
2023-04-27T04:04:22.529Z,81.15
2023-04-27T04:06:25.623Z,81.58
2023-04-27T04:08:27.232Z,81.76
2023-04-27T04:10:28.822Z,80.94
2023-04-27T04:12:30.421Z,81.14
2023-04-27T04:14:31.922Z,82.20
2023-04-27T04:16:33.809Z,81.57
2023-04-27T04:18:36.502Z,81.82
2023-04-27T04:20:37.980Z,81.82
2023-04-27T04:22:40.839Z,81.97
2023-04-27T04:24:42.374Z,82.33
2023-04-27T04:26:43.921Z,82.46
2023-04-27T04:28:45.398Z,82.17
2023-04-27T04:30:47.088Z,82.06
2023-04-27T04:32:48.810Z,82.39
2023-04-27T04:34:50.374Z,82.35
2023-04-27T04:36:51.891Z,82.23
2023-04-27T04:38:54.725Z,81.35
2023-04-27T04:40:56.231Z,82.04
2023-04-27T04:42:57.835Z,82.54
2023-04-27T04:44:59.296Z,82.37
2023-04-27T04:47:00.818Z,81.90
2023-04-27T04:49:02.943Z,81.59
2023-04-27T04:51:05.303Z,82.17
2023-04-27T04:53:06.766Z,82.31
2023-04-27T04:55:10.414Z,82.06
2023-04-27T04:57:11.930Z,82.64
2023-04-27T04:59:13.526Z,83.05
2023-04-27T05:01:15.528Z,83.44
2023-04-27T05:03:17.209Z,83.12
2023-04-27T05:05:18.804Z,82.32
2023-04-27T05:07:24.793Z,82.55
2023-04-27T05:09:26.628Z,82.40
2023-04-27T05:11:29.463Z,82.08
2023-04-27T05:13:30.980Z,81.78
2023-04-27T05:15:32.442Z,82.33
2023-04-27T05:17:33.995Z,82.05
2023-04-27T05:19:35.722Z,82.00
2023-04-27T05:21:37.231Z,82.28
2023-04-27T05:23:38.692Z,83.03
2023-04-27T05:25:40.233Z,83.54
2023-04-27T05:27:43.058Z,83.29
2023-04-27T05:29:44.551Z,82.94
2023-04-27T05:31:46.122Z,82.13
2023-04-27T05:33:47.623Z,82.38
2023-04-27T05:35:49.102Z,82.27
2023-04-27T05:37:50.616Z,80.45
2023-04-27T05:39:52.150Z,78.13
2023-04-27T05:41:53.667Z,77.57
2023-04-27T05:43:56.834Z,77.35
2023-04-27T05:45:58.313Z,76.34
2023-04-27T05:48:00.028Z,75.54
2023-04-27T05:50:01.634Z,76.27
2023-04-27T05:52:03.981Z,74.31
2023-04-27T05:54:05.541Z,74.84
2023-04-27T05:56:07.810Z,74.10
2023-04-27T05:58:09.806Z,72.73
2023-04-27T06:00:14.413Z,73.09
2023-04-27T06:02:16.139Z,72.80
2023-04-27T06:04:18.165Z,72.25
2023-04-27T06:06:19.726Z,71.57
2023-04-27T06:08:22.074Z,71.58
2023-04-27T06:10:23.971Z,72.10
2023-04-27T06:12:25.477Z,71.33
2023-04-27T06:14:28.302Z,69.80
2023-04-27T06:16:31.389Z,68.93
2023-04-27T06:18:33.102Z,67.19
2023-04-27T06:20:34.790Z,66.57
2023-04-27T06:22:36.432Z,65.68
2023-04-27T06:24:37.989Z,66.02
2023-04-27T06:26:39.498Z,66.06
2023-04-27T06:28:40.988Z,67.24
2023-04-27T06:30:42.573Z,67.26
2023-04-27T06:32:45.429Z,66.67
2023-04-27T06:34:47.103Z,66.12
2023-04-27T06:36:48.626Z,64.30
2023-04-27T06:38:50.103Z,63.88
2023-04-27T06:40:52.124Z,63.42
2023-04-27T06:42:53.610Z,61.65
2023-04-27T06:44:55.390Z,60.31
2023-04-27T06:46:56.946Z,59.81
2023-04-27T06:48:59.807Z,59.29
2023-04-27T06:51:01.338Z,58.98
2023-04-27T06:53:02.838Z,59.33
2023-04-27T06:55:05.106Z,58.85
2023-04-27T06:57:06.627Z,58.32
2023-04-27T06:59:08.885Z,58.10
2023-04-27T07:01:10.395Z,58.43
2023-04-27T07:03:12.047Z,58.09
2023-04-27T07:05:15.060Z,57.05
2023-04-27T07:07:16.905Z,55.18
2023-04-27T07:09:26.952Z,56.01
2023-04-27T07:11:29.389Z,56.29
2023-04-27T07:13:30.906Z,56.58
2023-04-27T07:15:32.481Z,56.54
2023-04-27T07:17:34.087Z,55.96
2023-04-27T07:19:36.809Z,54.89
2023-04-27T07:21:39.747Z,54.91
2023-04-27T07:23:41.276Z,54.37
2023-04-27T07:25:42.809Z,54.22
2023-04-27T07:27:44.293Z,53.79
2023-04-27T07:29:45.808Z,53.65
2023-04-27T07:31:47.282Z,54.77
2023-04-27T07:33:49.466Z,54.46
2023-04-27T07:35:50.967Z,54.24
2023-04-27T07:37:53.939Z,54.37
2023-04-27T07:39:55.403Z,53.69
2023-04-27T07:41:56.930Z,53.78
2023-04-27T07:43:58.380Z,53.93
2023-04-27T07:45:59.878Z,53.98
2023-04-27T07:48:01.702Z,53.84
2023-04-27T07:50:03.658Z,53.35
2023-04-27T07:52:05.502Z,53.35
2023-04-27T07:54:08.778Z,53.20
2023-04-27T07:56:10.582Z,52.53
2023-04-27T07:58:12.438Z,52.10
2023-04-27T08:00:14.278Z,52.09
2023-04-27T08:02:19.752Z,52.00
2023-04-27T08:04:22.223Z,51.21
2023-04-27T08:06:24.742Z,51.27
2023-04-27T08:08:26.595Z,50.84
2023-04-27T08:10:29.684Z,49.90
2023-04-27T08:12:32.550Z,50.50
2023-04-27T08:14:34.416Z,49.83
2023-04-27T08:16:35.952Z,49.32
2023-04-27T08:18:37.550Z,49.20
2023-04-27T08:20:39.035Z,49.27
2023-04-27T08:22:41.442Z,48.57
2023-04-27T08:24:42.948Z,49.16
2023-04-27T08:26:45.823Z,48.46
2023-04-27T08:28:47.280Z,48.01
2023-04-27T08:30:48.768Z,47.62
2023-04-27T08:32:50.312Z,45.99
2023-04-27T08:34:51.837Z,45.06
2023-04-27T08:36:53.427Z,44.22
2023-04-27T08:38:54.912Z,45.57
2023-04-27T08:40:59.284Z,45.65
2023-04-27T08:43:03.687Z,44.76
2023-04-27T08:45:08.047Z,45.08
2023-04-27T08:47:10.243Z,45.17
2023-04-27T08:49:12.758Z,45.77
2023-04-27T08:51:16.604Z,45.47
2023-04-27T08:53:18.559Z,45.44
2023-04-27T08:55:20.160Z,45.27
2023-04-27T08:57:22.087Z,45.21
2023-04-27T08:59:24.898Z,45.28
2023-04-27T09:01:26.652Z,46.01
2023-04-27T09:03:28.250Z,46.13
2023-04-27T09:05:29.987Z,45.42
2023-04-27T09:07:31.513Z,45.47
2023-04-27T09:09:33.136Z,44.37
2023-04-27T09:11:36.014Z,44.06
2023-04-27T09:13:38.183Z,44.40
2023-04-27T09:15:48.292Z,43.08
2023-04-27T09:17:54.102Z,42.92
2023-04-27T09:20:04.297Z,42.40
2023-04-27T09:22:07.983Z,42.09
2023-04-27T09:24:10.547Z,42.88
2023-04-27T09:26:20.039Z,42.77
2023-04-27T09:28:21.788Z,43.37
2023-04-27T09:30:24.142Z,43.97
2023-04-27T09:32:27.043Z,44.04
2023-04-27T09:34:38.237Z,43.51
2023-04-27T09:36:40.155Z,43.51
2023-04-27T09:38:42.393Z,43.32
2023-04-27T09:40:43.993Z,43.16
2023-04-27T09:42:46.120Z,43.18
2023-04-27T09:44:48.135Z,42.48
2023-04-27T09:46:52.786Z,42.46
2023-04-27T09:48:56.546Z,42.52
2023-04-27T09:50:57.929Z,42.73
2023-04-27T09:52:59.427Z,42.48
2023-04-27T09:55:03.544Z,42.55
2023-04-27T09:57:19.054Z,42.54
2023-04-27T09:59:41.446Z,42.20
2023-04-27T10:01:47.111Z,42.65
2023-04-27T10:04:04.237Z,42.85
2023-04-27T10:06:46.832Z,42.85
2023-04-27T10:08:50.524Z,42.80
2023-04-27T10:10:53.329Z,42.82
2023-04-27T10:13:00.908Z,42.92
2023-04-27T10:15:13.092Z,42.30
2023-04-27T10:17:15.184Z,42.33
2023-04-27T10:19:18.625Z,42.74
2023-04-27T10:21:20.572Z,42.92
2023-04-27T10:23:25.850Z,43.44
2023-04-27T10:25:29.593Z,42.88
2023-04-27T10:27:39.134Z,43.38
2023-04-27T10:29:42.776Z,43.15
2023-04-27T10:31:44.968Z,44.09
2023-04-27T10:33:47.182Z,44.16
2023-04-27T10:35:57.313Z,43.49
2023-04-27T10:38:05.996Z,43.67
2023-04-27T10:40:10.143Z,43.88
2023-04-27T10:42:11.982Z,43.13
2023-04-27T10:44:14.035Z,42.89
2023-04-27T10:46:16.411Z,42.33
2023-04-27T10:48:17.994Z,42.04
2023-04-27T10:50:19.564Z,43.16
2023-04-27T10:52:22.929Z,43.53
2023-04-27T10:54:28.049Z,43.42
2023-04-27T10:56:29.587Z,43.42
2023-04-27T10:58:41.488Z,44.17
2023-04-27T11:00:49.470Z,43.62
2023-04-27T11:02:51.751Z,42.92
2023-04-27T11:04:53.332Z,42.67
2023-04-27T11:06:54.878Z,42.49
2023-04-27T11:08:57.757Z,42.97
2023-04-27T11:10:59.256Z,42.52
2023-04-27T11:13:07.496Z,42.56
2023-04-27T11:15:09.962Z,42.35
2023-04-27T11:17:11.617Z,42.04
2023-04-27T11:19:14.087Z,42.95
2023-04-27T11:21:17.520Z,42.43
2023-04-27T11:23:26.304Z,41.84
2023-04-27T11:25:29.459Z,42.10
2023-04-27T11:27:37.818Z,42.01
2023-04-27T11:29:39.797Z,41.81
2023-04-27T11:31:42.816Z,41.65
2023-04-27T11:33:48.299Z,43.04
2023-04-27T11:35:49.856Z,42.95
2023-04-27T11:37:57.529Z,41.73
2023-04-27T11:40:00.570Z,40.97
2023-04-27T11:42:17.295Z,41.09
2023-04-27T11:44:19.077Z,41.51
2023-04-27T11:46:20.735Z,41.12
2023-04-27T11:48:23.554Z,41.78
2023-04-27T11:50:25.774Z,41.52
2023-04-27T11:52:28.555Z,40.69
2023-04-27T11:54:30.114Z,40.68
2023-04-27T11:56:35.728Z,41.03
2023-04-27T11:58:39.790Z,41.10
2023-04-27T12:00:41.584Z,41.05
2023-04-27T12:02:44.140Z,40.04
2023-04-27T12:04:46.194Z,39.99
2023-04-27T12:06:48.024Z,40.90
2023-04-27T12:08:49.525Z,40.27
2023-04-27T12:10:51.515Z,39.76
2023-04-27T12:12:53.312Z,39.09
2023-04-27T12:14:56.302Z,39.07
2023-04-27T12:16:57.866Z,39.41
2023-04-27T12:18:59.342Z,39.35
2023-04-27T12:21:03.001Z,39.24
2023-04-27T12:23:05.064Z,39.44
2023-04-27T12:25:07.125Z,38.94
2023-04-27T12:27:08.712Z,39.74
2023-04-27T12:29:10.226Z,40.12
2023-04-27T12:31:15.763Z,39.11
2023-04-27T12:33:17.798Z,38.04
2023-04-27T12:35:19.526Z,38.72
2023-04-27T12:37:20.987Z,38.71
2023-04-27T12:39:23.768Z,39.25
2023-04-27T12:41:25.365Z,38.74
2023-04-27T12:43:27.026Z,39.20
2023-04-27T12:45:28.546Z,38.72
2023-04-27T12:49:35.848Z,38.43
2023-04-27T12:51:37.949Z,39.65
2023-04-27T12:53:39.490Z,39.37
2023-04-27T12:55:41.027Z,39.82
2023-04-27T12:57:42.520Z,40.19
2023-04-27T12:59:44.143Z,39.83
2023-04-27T13:01:45.788Z,39.76
2023-04-27T13:03:48.925Z,39.51
2023-04-27T13:05:50.461Z,39.51
2023-04-27T13:07:52.245Z,39.38
2023-04-27T13:09:54.021Z,40.14
2023-04-27T13:11:55.556Z,40.18
2023-04-27T13:13:57.091Z,39.24
2023-04-27T13:15:58.611Z,39.35
2023-04-27T13:18:00.144Z,39.67
2023-04-27T13:20:03.166Z,39.09
2023-04-27T13:22:04.655Z,38.82
2023-04-27T13:24:07.391Z,39.40
2023-04-27T13:26:09.260Z,40.03
2023-04-27T13:28:10.798Z,40.26
2023-04-27T13:30:12.795Z,39.96
2023-04-27T13:32:14.276Z,39.80
2023-04-27T13:34:16.375Z,39.43
2023-04-27T13:36:19.537Z,39.36
2023-04-27T13:38:21.334Z,39.10
2023-04-27T13:40:23.037Z,38.81
2023-04-27T13:42:24.499Z,38.92
2023-04-27T13:44:26.165Z,38.68
2023-04-27T13:46:27.797Z,39.10
2023-04-27T13:48:30.128Z,38.84
2023-04-27T13:50:31.698Z,39.26
2023-04-27T13:52:35.151Z,38.86
2023-04-27T13:54:36.633Z,38.74
2023-04-27T13:56:38.101Z,37.47
2023-04-27T13:58:39.652Z,37.93
2023-04-27T14:00:41.171Z,37.83
2023-04-27T14:02:42.976Z,38.27
2023-04-27T14:04:44.601Z,37.91
2023-04-27T14:06:46.110Z,38.11
2023-04-27T14:08:48.923Z,38.76
2023-04-27T14:10:50.481Z,38.70
2023-04-27T14:12:52.085Z,38.46
2023-04-27T14:14:53.535Z,38.58
2023-04-27T14:16:55.279Z,36.93
2023-04-27T14:18:57.028Z,36.51
2023-04-27T14:20:58.582Z,36.07
2023-04-27T14:23:00.547Z,35.63
2023-04-27T14:25:03.700Z,35.30
2023-04-27T14:27:06.390Z,35.80
2023-04-27T14:29:07.942Z,36.32
2023-04-27T14:31:09.612Z,35.95
2023-04-27T14:33:11.226Z,35.88
2023-04-27T14:35:12.794Z,35.78
2023-04-27T14:37:14.618Z,35.57
2023-04-27T14:39:16.849Z,34.86
2023-04-27T14:41:20.170Z,33.65
2023-04-27T14:43:21.630Z,34.92
2023-04-27T14:45:24.230Z,35.15
2023-04-27T14:47:26.220Z,37.82
2023-04-27T14:49:27.760Z,37.57
2023-04-27T14:51:29.382Z,37.82
2023-04-27T14:53:30.889Z,38.72
2023-04-27T14:55:33.619Z,39.10
2023-04-27T14:57:36.562Z,39.69
2023-04-27T14:59:38.052Z,38.67
2023-04-27T15:01:39.587Z,38.11
2023-04-27T15:03:41.452Z,37.50
2023-04-27T15:05:43.372Z,37.84
2023-04-27T15:07:44.890Z,38.22
2023-04-27T15:09:46.850Z,39.34
2023-04-27T15:11:48.355Z,39.23
2023-04-27T15:13:51.796Z,38.31
2023-04-27T15:15:54.426Z,38.75
2023-04-27T15:17:56.959Z,39.54
2023-04-27T15:19:58.560Z,40.04
2023-04-27T15:22:00.073Z,39.95
2023-04-27T15:24:03.950Z,40.76
2023-04-27T15:26:05.540Z,40.16
2023-04-27T15:28:07.068Z,38.83
2023-04-27T15:30:10.710Z,38.49
2023-04-27T15:32:13.084Z,37.84
2023-04-27T15:34:15.386Z,39.03
2023-04-27T15:36:16.950Z,38.86
2023-04-27T15:38:19.663Z,38.79
2023-04-27T15:40:21.453Z,38.83
2023-04-27T15:42:23.039Z,38.84
2023-04-27T15:44:25.113Z,39.20
2023-04-27T15:46:28.781Z,38.87
2023-04-27T15:48:30.102Z,38.87
2023-04-27T15:50:32.574Z,39.02
2023-04-27T15:52:34.320Z,38.29
2023-04-27T15:54:35.777Z,38.14
2023-04-27T15:56:38.132Z,38.63
2023-04-27T15:58:40.351Z,39.13
2023-04-27T16:00:41.987Z,39.71
2023-04-27T16:02:44.943Z,39.21
2023-04-27T16:04:48.533Z,38.87
2023-04-27T16:06:50.029Z,38.78
2023-04-27T16:08:51.514Z,40.11
2023-04-27T16:10:53.072Z,38.94
2023-04-27T16:12:56.352Z,38.23
2023-04-27T16:14:57.854Z,37.71
2023-04-27T16:16:59.472Z,38.13
2023-04-27T16:21:29.234Z,35.40
2023-04-27T16:23:30.741Z,35.12
2023-04-27T16:25:32.327Z,34.82
2023-04-27T16:27:33.789Z,34.86
2023-04-27T16:29:35.298Z,35.45
2023-04-27T16:31:36.822Z,36.29
2023-04-27T16:33:38.306Z,37.67
2023-04-27T16:35:41.181Z,38.01
2023-04-27T16:37:42.695Z,38.71
2023-04-27T16:39:44.178Z,38.89
2023-04-27T16:41:45.743Z,39.00
2023-04-27T16:43:47.372Z,38.91
2023-04-27T16:45:48.830Z,38.70
2023-04-27T16:47:50.341Z,37.78
2023-04-27T16:49:51.929Z,37.85
2023-04-27T16:51:54.770Z,37.36
2023-04-27T16:53:57.207Z,36.71
2023-04-27T16:55:59.562Z,35.59
2023-04-27T16:58:01.222Z,35.17
2023-04-27T17:00:03.127Z,35.56
2023-04-27T17:02:20.896Z,36.83
2023-04-27T17:04:25.907Z,37.30
2023-04-27T17:06:27.890Z,37.29
2023-04-27T17:08:30.718Z,38.20
2023-04-27T17:10:32.615Z,38.10
2023-04-27T17:12:35.111Z,38.74
2023-04-27T17:14:36.775Z,38.20
2023-04-27T17:16:38.268Z,38.71
2023-04-27T17:18:39.835Z,40.53
2023-04-27T17:20:42.380Z,38.67
2023-04-27T17:22:43.940Z,38.92
2023-04-27T17:24:46.766Z,41.74
2023-04-27T17:26:48.528Z,41.11
2023-04-27T17:28:50.879Z,40.22
2023-04-27T17:30:52.384Z,39.39
2023-04-27T17:32:54.060Z,40.13
2023-04-27T17:34:55.565Z,39.71
2023-04-27T17:36:57.095Z,39.35
2023-04-27T17:38:58.588Z,39.88
2023-04-27T17:41:01.466Z,41.91
2023-04-27T17:43:03.041Z,40.74
2023-04-27T17:45:07.386Z,40.40
2023-04-27T17:47:09.279Z,40.94
2023-04-27T17:49:10.804Z,39.37
2023-04-27T17:51:12.341Z,38.31
2023-04-27T17:53:13.802Z,39.81
2023-04-27T17:55:15.402Z,40.12
2023-04-27T17:57:18.437Z,40.19
2023-04-27T17:59:19.935Z,40.54
2023-04-27T18:01:21.478Z,40.14
2023-04-27T18:03:23.250Z,40.83
2023-04-27T18:05:25.005Z,39.58
2023-04-27T18:07:26.641Z,40.21
2023-04-27T18:09:29.500Z,39.78
2023-04-27T18:11:32.869Z,39.99
2023-04-27T18:13:35.729Z,40.70
2023-04-27T18:15:37.504Z,41.39
2023-04-27T18:17:39.040Z,42.14
2023-04-27T18:19:40.576Z,42.65
2023-04-27T18:21:42.274Z,43.31
2023-04-27T18:23:43.809Z,43.88
2023-04-27T18:25:45.550Z,43.89
2023-04-27T18:27:47.018Z,44.68
2023-04-27T18:29:50.420Z,45.25
2023-04-27T18:31:52.353Z,44.92
2023-04-27T18:33:54.216Z,45.06
2023-04-27T18:35:55.678Z,47.56
2023-04-27T18:37:57.190Z,45.23
2023-04-27T18:39:59.638Z,45.41
2023-04-27T18:42:04.220Z,44.84
2023-04-27T18:44:06.067Z,45.39
2023-04-27T18:46:09.267Z,45.45
2023-04-27T18:48:10.847Z,45.89
2023-04-27T18:50:12.350Z,45.85
2023-04-27T18:52:13.860Z,46.00
2023-04-27T18:54:15.445Z,46.70
2023-04-27T18:56:17.269Z,48.30
2023-04-27T18:58:21.489Z,47.83
2023-04-27T19:00:23.233Z,48.30
2023-04-27T19:02:26.190Z,48.65
2023-04-27T19:04:27.887Z,48.99
2023-04-27T19:06:29.531Z,49.27
2023-04-27T19:08:33.054Z,50.63
2023-04-27T19:10:34.513Z,50.71
2023-04-27T19:12:36.065Z,50.18
2023-04-27T19:14:37.606Z,50.24
2023-04-27T19:16:39.146Z,50.85
2023-04-27T19:18:42.026Z,50.60
2023-04-27T19:20:43.694Z,51.98
2023-04-27T19:22:45.271Z,52.00
2023-04-27T19:24:47.176Z,51.97
2023-04-27T19:26:48.714Z,51.37
2023-04-27T19:28:50.467Z,51.54
2023-04-27T19:30:51.989Z,51.44
2023-04-27T19:32:53.600Z,53.67
2023-04-27T19:34:57.605Z,53.82
2023-04-27T19:36:59.104Z,54.57
2023-04-27T19:39:00.668Z,53.56
2023-04-27T19:41:02.142Z,54.24
2023-04-27T19:43:03.743Z,53.90
2023-04-27T19:45:06.326Z,53.92
2023-04-27T19:47:08.044Z,55.48
2023-04-27T19:49:09.564Z,54.17
2023-04-27T19:51:12.613Z,54.32
2023-04-27T19:53:14.098Z,55.96
2023-04-27T19:55:15.924Z,55.94
2023-04-27T19:57:17.527Z,56.37
2023-04-27T19:59:19.006Z,56.85
2023-04-27T20:01:20.640Z,56.36
2023-04-27T20:03:22.371Z,55.81
2023-04-27T20:05:24.593Z,56.77
2023-04-27T20:07:27.838Z,56.16
2023-04-27T20:09:29.326Z,57.58
2023-04-27T20:11:30.828Z,57.00
2023-04-27T20:13:32.616Z,57.73
2023-04-27T20:15:34.150Z,56.25
2023-04-27T20:17:35.741Z,57.73
2023-04-27T20:19:37.310Z,58.02
2023-04-27T20:21:38.832Z,57.68
2023-04-27T20:23:41.688Z,58.37
2023-04-27T20:25:43.176Z,59.88
2023-04-27T20:27:44.786Z,59.49
2023-04-27T20:29:46.273Z,58.04
2023-04-27T20:31:47.933Z,57.85
2023-04-27T20:33:49.433Z,58.45
2023-04-27T20:35:50.948Z,58.06
2023-04-27T20:37:52.456Z,57.93
2023-04-27T20:39:55.284Z,57.90
2023-04-27T20:41:56.862Z,58.30
2023-04-27T20:43:58.329Z,59.19
2023-04-27T20:45:59.876Z,59.03
2023-04-27T20:48:01.602Z,59.83
2023-04-27T20:50:03.661Z,60.46
2023-04-27T20:52:05.258Z,59.18
2023-04-27T20:54:06.913Z,59.15
2023-04-27T20:56:09.782Z,59.56
2023-04-27T20:58:11.259Z,61.20
2023-04-27T21:00:13.755Z,61.64
2023-04-27T21:02:15.272Z,61.65
2023-04-27T21:04:17.088Z,62.15
2023-04-27T21:06:18.921Z,62.87
2023-04-27T21:08:20.380Z,62.60
2023-04-27T21:10:21.894Z,63.97
2023-04-27T21:12:25.108Z,63.22
2023-04-27T21:14:26.610Z,63.02
2023-04-27T21:16:28.184Z,64.10
2023-04-27T21:18:30.922Z,63.59
2023-04-27T21:20:32.627Z,65.08
2023-04-27T21:22:34.117Z,64.75
2023-04-27T21:24:35.651Z,64.96
2023-04-27T21:26:37.179Z,65.20
2023-04-27T21:28:40.481Z,65.37
2023-04-27T21:30:42.012Z,65.62
2023-04-27T21:32:43.713Z,66.18
2023-04-27T21:34:45.263Z,66.46
2023-04-27T21:36:46.780Z,67.56
2023-04-27T21:38:48.253Z,68.13
2023-04-27T21:40:49.777Z,67.94
2023-04-27T21:42:51.577Z,66.54
2023-04-27T21:44:55.970Z,66.56
2023-04-27T21:46:57.539Z,66.62
2023-04-27T21:48:59.009Z,67.25
2023-04-27T21:51:00.708Z,66.46
2023-04-27T21:53:02.214Z,66.75
2023-04-27T21:55:04.034Z,67.32
2023-04-27T21:57:05.565Z,66.97
2023-04-27T21:59:07.065Z,66.63
2023-04-27T22:01:10.193Z,66.22
2023-04-27T22:03:11.879Z,66.43
2023-04-27T22:05:13.664Z,67.51
2023-04-27T22:07:15.516Z,67.52
2023-04-27T22:09:24.689Z,68.33
2023-04-27T22:14:04.193Z,68.77
2023-04-27T22:16:06.602Z,69.14
2023-04-27T22:18:10.317Z,69.40
2023-04-27T22:20:15.558Z,69.16
2023-04-27T22:22:21.433Z,69.14
2023-04-27T22:24:23.621Z,69.62
2023-04-27T22:26:28.619Z,69.66
2023-04-27T22:28:35.401Z,70.79
2023-04-27T22:30:42.779Z,71.15
2023-04-27T22:32:45.064Z,71.22
2023-04-27T22:34:49.247Z,71.17
2023-04-27T22:37:01.275Z,71.29
2023-04-27T22:39:17.609Z,70.89
2023-04-27T22:41:20.525Z,69.77
2023-04-27T22:43:22.867Z,70.01
2023-04-27T22:45:25.584Z,70.44
2023-04-27T22:47:29.952Z,70.53
2023-04-27T22:49:32.434Z,71.09
2023-04-27T22:51:42.050Z,71.10
2023-04-27T22:53:44.605Z,71.65
2023-04-27T22:55:47.539Z,72.17
2023-04-27T22:57:49.076Z,71.60
2023-04-27T22:59:50.550Z,72.35
2023-04-27T23:01:52.310Z,73.11
2023-04-27T23:03:53.933Z,73.23
2023-04-27T23:05:55.493Z,73.37
2023-04-27T23:07:58.339Z,73.22
2023-04-27T23:09:59.954Z,72.10
2023-04-27T23:12:01.452Z,72.40
2023-04-27T23:14:03.561Z,72.74
2023-04-27T23:16:05.997Z,72.80
2023-04-27T23:18:07.484Z,73.76
2023-04-27T23:20:17.291Z,73.50
2023-04-27T23:22:29.464Z,73.87
2023-04-27T23:24:32.284Z,73.48
2023-04-27T23:26:33.736Z,73.29
2023-04-27T23:28:35.249Z,73.75
2023-04-27T23:30:36.751Z,74.20
2023-04-27T23:32:38.398Z,74.67
2023-04-27T23:34:39.850Z,74.36
2023-04-27T23:36:41.441Z,73.75
2023-04-27T23:38:42.995Z,73.18
2023-04-27T23:40:45.811Z,71.72
2023-04-27T23:42:48.196Z,71.96
2023-04-27T23:44:50.687Z,72.95
2023-04-27T23:46:52.160Z,73.31
2023-04-27T23:48:53.618Z,73.90
2023-04-27T23:51:04.660Z,73.78
2023-04-27T23:53:06.198Z,73.63
2023-04-27T23:55:08.661Z,73.50
2023-04-27T23:57:11.854Z,74.51
2023-04-27T23:59:13.631Z,73.81
